Flight Track Log - Related Links

Times and Time Zones

All times are in EDT time to prevent confusion due to time zone crossing. See the GGN7280 flight status page for this flight to view local times or setup timezone preferences in your user account.

Time Position Orientation Groundspeed Altitude Reporting Facility
EDT Latitude Longitude Course Direction KTS MPH feet Rate Location/Type
Mon 09:29:25 AM 43.6500 -79.6167 55° Northeast 20 23 500  Level Toronto Center
Mon 09:30:25 AM 43.6667 -79.5833 55° Northeast 80 92 1,100 1,050 Climbing Toronto Center
Mon 09:31:25 AM 43.6667 -79.5167 90° East 180 207 2,600 1,300 Climbing Toronto Center
Mon 09:32:25 AM 43.6667 -79.4500 90° East 210 242 3,700 1,041 Climbing Toronto Center
Mon 09:33:26 AM 43.6333 -79.3833 125° Southeast 220 253 4,700 950 Climbing Toronto Center
Mon 09:34:25 AM 43.5833 -79.2833 125° Southeast 230 265 5,600 857 Climbing Toronto Center
Mon 09:35:25 AM 43.5500 -79.2167 125° Southeast 230 265 6,400 800 Climbing Toronto Center
Mon 09:36:25 AM 43.5000 -79.1500 136° Southeast 250 288 7,200 800 Climbing Toronto Center
Mon 09:37:25 AM 43.4667 -79.0833 125° Southeast 250 288 8,000 843 Climbing Toronto Center
Mon 09:38:26 AM 43.4667 -78.9833 90° East 240 276 8,900 900 Climbing Toronto Center
Mon 09:39:25 AM 43.4500 -78.8833 103° East 250 288 9,800 857 Climbing Toronto Center
Mon 09:40:25 AM 43.4333 -78.7833 103° East 250 288 10,600 843 Climbing Toronto Center
Mon 09:41:26 AM 43.4333 -78.7000 90° East 250 288 11,500 950 Climbing Toronto Center
Mon 09:42:25 AM 43.4167 -78.6000 103° East 260 299 12,500 928 Climbing Toronto Center
Mon 09:43:03 AM 43.4181 -78.5742 86° East 248 285 13,000 1,163 Climbing Cleveland Center
Mon 09:44:03 AM 43.4081 -78.4831 99° East 248 285 14,400 1,350 Climbing Cleveland Center
Mon 09:45:03 AM 43.3981 -78.3919 99° East 248 285 15,700 1,300 Climbing Cleveland Center
Mon 09:46:03 AM 43.3881 -78.3008 99° East 248 285 17,000 1,250 Climbing Cleveland Center
Mon 09:47:03 AM 43.3758 -78.2100 100° East 242 278 18,200 1,350 Climbing Cleveland Center
Mon 09:48:03 AM 43.3614 -78.1161 102° East 237 273 19,700 1,400 Climbing Cleveland Center
Mon 09:49:03 AM 43.3511 -78.0253 99° East 237 273 21,000 1,200 Climbing Cleveland Center
Mon 09:50:03 AM 43.3428 -77.9314 97° East 242 278 22,100 850 Climbing Cleveland Center
Mon 09:51:03 AM 43.3278 -77.8292 101° East 249 287 22,700 400 Climbing Cleveland Center
Mon 09:52:03 AM 43.3128 -77.7214 101° East 272 313 22,900 100 Climbing Cleveland Center
Mon 09:53:03 AM 43.2975 -77.6108 101° East 284 327 22,900  Level Cleveland Center
Mon 09:54:03 AM 43.2819 -77.4947 100° East 299 344 22,900 30 Level Cleveland Center
Mon 09:56:25 AM 43.2489 -77.2156 99° East 299 344 23,000  Climbing Boston Center
Mon 09:57:25 AM 43.2347 -77.1006 100° East 299 344 22,900  Descending Boston Center
Mon 09:58:25 AM 43.2186 -76.9822 101° East 304 350 23,000 50 Climbing Boston Center
Mon 09:59:25 AM 43.2047 -76.8617 99° East 310 357 23,000  Level Boston Center
Mon 10:00:25 AM 43.1861 -76.7433 102° East 315 362 23,000 -50 Level Boston Center
Mon 10:01:26 AM 43.1500 -76.5667 106° East 320 368 22,900 -50 Descending Toronto Center
Mon 10:02:26 AM 43.1333 -76.4500 101° East 320 368 22,900 50 Level Toronto Center
Mon 10:03:26 AM 43.1167 -76.3500 103° East 320 368 23,000 50 Climbing Toronto Center
Mon 10:04:25 AM 43.1239 -76.2694 83° East 315 362 23,000 -353 Level Boston Center
Mon 10:05:25 AM 43.1050 -76.1458 102° East 320 368 22,300 -1,050 Descending Boston Center
Mon 10:06:25 AM 43.0881 -76.0256 101° East 320 368 20,900 -1,450 Descending Boston Center
Mon 10:07:25 AM 43.0706 -75.9136 102° East 309 356 19,400 -1,400 Descending Boston Center
Mon 10:08:25 AM 43.0406 -75.8067 111° Southeast 304 350 18,100 -950 Descending Boston Center
Mon 10:09:25 AM 43.0336 -75.6869 94° East 304 350 17,500 -700 Descending Boston Center
Mon 10:10:25 AM 43.0181 -75.5725 100° East 299 344 16,700 -733 Descending Boston Center
Mon 10:11:36 AM 42.9981 -75.4581 103° East 299 344 15,900 -818 Descending Boston Center
Mon 10:12:37 AM 42.9808 -75.3208 100° East 299 344 14,900 -942 Descending Boston Center
Mon 10:13:37 AM 42.9650 -75.2039 100° East 299 344 14,000 -950 Descending Boston Center
Mon 10:14:37 AM 42.9489 -75.0925 101° East 299 344 13,000 -1,034 Descending Boston Center
Mon 10:15:04 AM 42.9378 -75.0267 103° East 317 365 12,500 -900 Descending Boston Center
Mon 10:15:37 AM 42.9306 -74.9811 102° East 299 344 12,100 -774 Descending Boston Center
Mon 10:16:37 AM 42.9144 -74.8642 101° East 299 344 11,300 -550 Descending Boston Center
Mon 10:17:37 AM 42.8939 -74.7414 103° East 294 338 11,000 -143 Descending Boston Center
Mon 10:18:43 AM 42.8733 -74.6300 104° East 287 330 11,000  Level Boston Center
Mon 10:19:37 AM 42.8606 -74.5306 100° East 283 326 11,000 -148 Level Boston Center
Mon 10:20:45 AM 42.8439 -74.4194 102° East 284 327 10,700 -650 Descending Boston Center
Mon 10:21:37 AM 42.8289 -74.3172 101° East 282 325 9,700 -1,180 Descending Boston Center
Mon 10:22:47 AM 42.8058 -74.1947 104° East 299 344 8,300 -1,350 Descending Boston Center
Mon 10:23:37 AM 42.7675 -74.1117 122° Southeast 289 333 7,000 -1,309 Descending Boston Center
Mon 10:24:37 AM 42.7353 -74.0317 119° Southeast 289 333 5,900 -1,250 Descending Boston Center
Mon 10:25:37 AM 42.7011 -73.9403 117° Southeast 278 320 4,500 -1,350 Descending Boston Center
Mon 10:26:37 AM 42.6769 -73.8606 112° Southeast 254 292 3,200 -818 Descending Boston Center
Mon 10:27:49 AM 42.6675 -73.7925 101° East 242 278 2,700 -417 Descending Boston Center
Mon 10:31:00 AM 42.6432 -73.6791 106° East  Level FlightAware Approximate

Login

Don't have an account? Register now (free) for customized features, flight alerts, and more!